Huvudsida
METAR-TAF:

METAR-TAF

Flygplatser :

Cape Newenham, Alaska, USA

latitud: 58-39N, longitud: 162-04W, höjd: 165 m

Aktuellt väderrapport

Denna rapport gjordes för 10 minuter sedan, klockan 17:47 UTC
Vind 1 kt varierande vindriktning
Temperatur 3°C
Fuktighet 100%
Tryck 1026 hPa
Sikt: 1.2 km
fuktdis

METAR: PAEH 141747Z AUTO VRB01KT 3/4SM BR VV003 03/03 A3030 RMK AO2 SLP267

Tid: 09:57 (17:57 UTC)


TAF: saknas

Aktuella väderrapporter och prognoser från 4000 flygplatser (METAR- och TAF-rapporter).

De tillgängliga stationerna syns som gula och röda prickar på kartan.

För musen över prickarna för att se namnen på stationerna.

Klicka sedan för att få väderrapporter och prognoser.

För att ändra kartan: Klicka på de gröna knapparna med ett svart kors på för att zooma in; den gröna knappen med ett streck på för att zooma ut; eller på de gröna pilarna för angränsande kartor.


METAR-TAF: